NV42 weather

Heritage Airport
Jean, Nevada, United States

Public forecast

Using degrees Fahrenheit for public forecast. Weather courtesy of forecast.io.

METAR (pilot weather report)

Closest report is Henderson Executive Airport, 26.9 nm (49.9 km) ENE. Retrieved 2019/03/25 14:56 UTC (34 minutes ago):

KHND 251456Z 16004KT 10SM CLR 11/00 A3023 RMK AO2 SLP233 T01110000 53011 $

TAF (pilot weather forecast)

Closest forecast is Henderson Executive Airport, 26.9 nm (49.9 km) ENE. Retrieved 2019/03/25 12:22 UTC (3 hours ago):

TAF KHND 251120Z 2512/2612 18006KT P6SM FEW250 FM251500 VRB05KT P6SM FEW250 FM260200 18007KT P6SM FEW250